Airfield :
LOGIN :

Register | Disclaimer

   EN    FR    IT 

 










Legend :    VFR   Marginal VFR   IFR   Intensive IFR   Very Intensive IFR
Visi :
Ceiling :
>= 8 km
>= 3000ft
5 to 8 km
1000 to 3000 ft
1500m to 5 km
500 to 1000 ft
800 to 1500m
200 to 500 ft
< 800m
< 200 ft
Symbols :   Thunderstorms  Fog  Heavy snow  Heavy precipitations  Wind > 20 kt
SIGMETs :     Misc.  Thunderstorms  Icing  Turbulence  Mountain Waves  Volcanic Ashes







- Airport Elevation : 25 ft
- IATA code : QCY


EGXC - RAF Coningsby

CURRENT METAR :
  • 150550Z 14011KT 9999 BKN038 BKN180 01/M03 Q1019 BLU

EXPIRED METARs :
  • 150450Z 16008KT 9999 BKN040 01/M02 Q1020 BLU
  • 150350Z 16009KT 9999 BKN042 02/M01 Q1020 BLU

TAF TAF EGXC
Valid from the 15 at 06:00 until the 16 at 00:00 UTC


150424Z 1506/1524 15010KT 9999 BKN045
BECMG 1511/1513 15020G30KT
BECMG 1514/1516 7000 RA BKN012
PROB30
TEMPO 1516/1519 3000 RASN +RA SCT006
BECMG 1519/1522 16015KT
TEMPO 1519/1522 3000 RADZ BKN006
BECMG 1522/1524 19010KT
No reported NOTAMs for that airfield.
3 SIGMETs reported for the London FIR (EGTT) :
 
Severe icing with freezing rain
EGTT SIGMET 03 VALID 150530/150800 EGRR
EGTT LONDON FIR SEV ICE (FZRA) FCST WI N5451 W00252 - N5417 W00237 - N5411 W00313 - N5433 W00332 - N5456 W00313 - N5451 W00252 SFC/FL040 MOV E 10KT NC=
Severe icing with freezing rain
EGTT SIGMET 02 VALID 150500/150800 EGRR
EGTT LONDON FIR SEV ICE (FZRA) FCST WI N5316 W00300 - N5142 W00244 - N5148 W00437 - N5227 W00402 - N5313 W00414 - N5316 W00300 SFC/FL040 MOV ENE 05KT INTSF=
Severe turbulence
EGTT SIGMET 01 VALID 150400/150800 EGRR
EGTT LONDON FIR SEV TURB FCST W OF LINE N5500 W00156 - N4934 W00414 SFC/FL060 MOV E 10KT NC=



MET'MAP, your aeronautical weather chart ! - Copyright ORBIFLY December 2007 - Disclaimer

ORBIFLY MET'MAP TEAM :

Programming & Development : Alexandra Zaïnal
Concept & Development : Baudouin d'Aumeries
Co-Development & Prog : Marc-Olivier Méhu
Technical & hardware support : Manuel Goepfert

Contact : metmap@orbifly.com




SOURCES & CREDITS :

   NOAA